Time;durP1;ratioP1;P1;durP2;ratioP2;P2;SDS_P1;SDS_P2;PMS_P1;PMS_P2;Temp;Humidity;BMP_temperature;BMP_pressure;BME280_temperature;BME280_humidity;BME280_pressure;Samples;Min_cycle;Max_cycle;Signal;HPM_P1;HPM_P2
2022/06/04 00:00:20;;;;;;;3.58;1.20;;;;;;;;;;5094047;28;20424;-76
2022/06/04 00:02:47;;;;;;;3.40;1.20;;;;;;;;;;5093990;28;20065;-76
2022/06/04 00:05:14;;;;;;;2.38;1.02;;;;;;;;;;5102780;28;20038;-76
2022/06/04 00:07:41;;;;;;;5.32;1.50;;;;;;;;;;5114378;28;20053;-76
2022/06/04 00:15:44;;;;;;;2.03;1.30;;;;;;;;;;5114614;28;20108;-76
2022/06/04 00:18:10;;;;;;;2.80;1.38;;;;;;;;;;5114126;28;20031;-76
2022/06/04 00:20:36;;;;;;;5.68;1.42;;;;;;;;;;5114293;28;20019;-76
2022/06/04 00:23:03;;;;;;;2.67;1.58;;;;;;;;;;5114184;28;20028;-77
2022/06/04 00:25:29;;;;;;;3.13;1.63;;;;;;;;;;5114028;28;20020;-76
2022/06/04 00:27:59;;;;;;;3.08;1.20;;;;;;;;;;5113984;28;20033;-76
2022/06/04 00:30:25;;;;;;;2.95;1.30;;;;;;;;;;5113698;28;20037;-76
2022/06/04 00:32:52;;;;;;;6.22;1.40;;;;;;;;;;5113956;28;20023;-75
2022/06/04 00:35:18;;;;;;;2.72;1.60;;;;;;;;;;5113810;28;20039;-76
2022/06/04 00:37:44;;;;;;;5.70;1.45;;;;;;;;;;5113587;28;20322;-76
2022/06/04 00:40:12;;;;;;;5.65;1.40;;;;;;;;;;5095398;28;20028;-76
2022/06/04 00:42:38;;;;;;;3.58;1.20;;;;;;;;;;5113564;28;20024;-75
2022/06/04 00:45:22;;;;;;;3.08;1.50;;;;;;;;;;5113719;28;20020;-76
2022/06/04 00:47:51;;;;;;;2.88;2.10;;;;;;;;;;5113497;28;20092;-76
2022/06/04 00:50:20;;;;;;;3.97;2.03;;;;;;;;;;5113562;28;20024;-76
2022/06/04 00:52:47;;;;;;;6.97;2.85;;;;;;;;;;5113587;28;20023;-76
2022/06/04 00:55:14;;;;;;;4.82;1.80;;;;;;;;;;5113316;28;20077;-75
2022/06/04 00:57:50;;;;;;;3.22;1.58;;;;;;;;;;5113216;28;20104;-75
2022/06/04 01:00:30;;;;;;;3.08;1.52;;;;;;;;;;5113436;28;20035;-76
2022/06/04 01:03:15;;;;;;;6.03;1.90;;;;;;;;;;5113325;28;20127;-76
2022/06/04 01:05:41;;;;;;;2.78;1.67;;;;;;;;;;5100385;28;20028;-76
2022/06/04 01:08:39;;;;;;;4.00;2.05;;;;;;;;;;5092949;28;20497;-76
2022/06/04 01:11:23;;;;;;;2.92;1.98;;;;;;;;;;5030235;28;20044;-76
2022/06/04 01:13:55;;;;;;;7.03;1.90;;;;;;;;;;5030244;28;20045;-76
2022/06/04 01:16:29;;;;;;;4.55;1.90;;;;;;;;;;5030064;28;20045;-75
2022/06/04 01:18:58;;;;;;;4.40;1.98;;;;;;;;;;5030076;28;20530;-76
2022/06/04 01:21:30;;;;;;;3.83;1.90;;;;;;;;;;5030317;28;20031;-76
2022/06/04 01:23:59;;;;;;;4.95;2.00;;;;;;;;;;5030150;28;20096;-76
2022/06/04 01:26:37;;;;;;;6.10;1.90;;;;;;;;;;5030046;28;20357;-76
2022/06/04 01:29:06;;;;;;;3.33;2.10;;;;;;;;;;5029727;28;20104;-76
2022/06/04 01:31:36;;;;;;;3.42;1.98;;;;;;;;;;5015040;28;20045;-76
2022/06/04 01:34:05;;;;;;;3.08;1.67;;;;;;;;;;5010283;28;20092;-76
2022/06/04 01:36:33;;;;;;;3.85;2.35;;;;;;;;;;5010145;28;20034;-76
2022/06/04 01:39:03;;;;;;;9.55;2.90;;;;;;;;;;5009745;28;20049;-76
2022/06/04 01:41:34;;;;;;;4.20;2.40;;;;;;;;;;5029818;28;20045;-75
2022/06/04 01:44:02;;;;;;;9.10;2.70;;;;;;;;;;5029697;28;20088;-76
2022/06/04 01:46:31;;;;;;;5.95;2.45;;;;;;;;;;5055991;28;20028;-76
2022/06/04 01:49:17;;;;;;;5.15;2.50;;;;;;;;;;5091714;28;20509;-76
2022/06/04 01:51:43;;;;;;;6.35;2.50;;;;;;;;;;5092037;28;20028;-76
2022/06/04 01:54:13;;;;;;;5.32;2.50;;;;;;;;;;5092123;28;20346;-76
2022/06/04 01:56:41;;;;;;;5.45;2.58;;;;;;;;;;5091977;28;20032;-76
2022/06/04 01:59:15;;;;;;;5.63;3.20;;;;;;;;;;5091820;28;20036;-76
2022/06/04 02:01:42;;;;;;;4.95;2.70;;;;;;;;;;5091910;28;20032;-76
2022/06/04 02:04:11;;;;;;;7.68;2.92;;;;;;;;;;5091955;28;20013;-75
2022/06/04 02:06:42;;;;;;;4.88;2.72;;;;;;;;;;5092011;28;20031;-76
2022/06/04 02:09:11;;;;;;;8.70;3.00;;;;;;;;;;5091805;28;20138;-75
2022/06/04 02:11:38;;;;;;;5.10;2.72;;;;;;;;;;5091836;28;20409;-76
2022/06/04 02:14:05;;;;;;;10.07;2.80;;;;;;;;;;5091773;28;20024;-76
2022/06/04 02:16:39;;;;;;;6.40;3.10;;;;;;;;;;5091680;28;20419;-76
2022/06/04 02:19:05;;;;;;;8.63;2.95;;;;;;;;;;5091516;28;20442;-76
2022/06/04 02:21:32;;;;;;;8.65;3.15;;;;;;;;;;5091644;28;20099;-76
2022/06/04 02:23:59;;;;;;;6.13;3.10;;;;;;;;;;5091640;28;20020;-76
2022/06/04 02:26:25;;;;;;;7.20;2.80;;;;;;;;;;5073319;28;20028;-76
2022/06/04 02:28:52;;;;;;;6.93;2.90;;;;;;;;;;5096579;28;20081;-76
2022/06/04 02:31:37;;;;;;;6.32;3.03;;;;;;;;;;5111658;28;20496;-76
2022/06/04 02:34:05;;;;;;;8.38;3.00;;;;;;;;;;5111938;28;20036;-76
2022/06/04 02:36:37;;;;;;;5.53;3.05;;;;;;;;;;5111867;28;20023;-76
2022/06/04 02:39:22;;;;;;;3.80;2.65;;;;;;;;;;5111624;28;20139;-76
2022/06/04 02:42:03;;;;;;;6.28;3.00;;;;;;;;;;5112082;28;20414;-76
2022/06/04 02:44:31;;;;;;;4.55;2.83;;;;;;;;;;5111887;28;20109;-76
2022/06/04 02:46:57;;;;;;;6.30;3.00;;;;;;;;;;5111610;28;20042;-76
2022/06/04 02:49:23;;;;;;;4.82;2.67;;;;;;;;;;5111749;28;20031;-76
2022/06/04 02:51:51;;;;;;;8.90;3.20;;;;;;;;;;5111748;28;20089;-76
2022/06/04 02:54:20;;;;;;;8.63;2.90;;;;;;;;;;5111571;28;20028;-76
2022/06/04 02:56:47;;;;;;;4.85;2.83;;;;;;;;;;5111610;28;20027;-76
2022/06/04 02:59:15;;;;;;;4.78;3.30;;;;;;;;;;5111658;28;20032;-76
2022/06/04 03:01:42;;;;;;;4.53;2.70;;;;;;;;;;5115625;28;20024;-76
2022/06/04 03:04:09;;;;;;;6.45;3.13;;;;;;;;;;5115807;28;20028;-76
2022/06/04 03:06:35;;;;;;;7.18;2.92;;;;;;;;;;5115690;28;20018;-76
2022/06/04 03:09:03;;;;;;;6.40;3.15;;;;;;;;;;5115648;28;20034;-76
2022/06/04 03:11:29;;;;;;;6.72;3.35;;;;;;;;;;5115561;28;20035;-76
2022/06/04 03:13:55;;;;;;;9.32;3.70;;;;;;;;;;5115695;28;20027;-76
2022/06/04 03:16:21;;;;;;;7.20;3.22;;;;;;;;;;5115530;28;20055;-76
2022/06/04 03:18:47;;;;;;;9.35;3.38;;;;;;;;;;5115394;28;20038;-76
2022/06/04 03:21:13;;;;;;;9.60;2.80;;;;;;;;;;5115461;28;20373;-76
2022/06/04 03:23:40;;;;;;;7.03;3.00;;;;;;;;;;5115405;28;20050;-76
2022/06/04 03:26:06;;;;;;;6.47;2.70;;;;;;;;;;5096881;28;20024;-76
2022/06/04 03:28:32;;;;;;;7.28;3.08;;;;;;;;;;5115279;28;20102;-76
2022/06/04 03:30:58;;;;;;;7.35;2.88;;;;;;;;;;5115123;28;20024;-76
2022/06/04 03:33:25;;;;;;;6.25;2.80;;;;;;;;;;5115127;28;20035;-76
2022/06/04 03:35:51;;;;;;;5.10;3.30;;;;;;;;;;5115213;28;20024;-76
2022/06/04 03:38:17;;;;;;;5.75;3.05;;;;;;;;;;5115157;28;20099;-76
2022/06/04 03:40:43;;;;;;;4.38;2.63;;;;;;;;;;5115131;28;20026;-76
2022/06/04 03:43:09;;;;;;;7.30;2.72;;;;;;;;;;5115009;28;20019;-76
2022/06/04 03:45:35;;;;;;;7.38;2.88;;;;;;;;;;5115143;28;20024;-75
2022/06/04 03:48:01;;;;;;;4.68;2.95;;;;;;;;;;5114957;28;20020;-76
2022/06/04 03:50:29;;;;;;;8.10;3.15;;;;;;;;;;5114944;28;20089;-76
2022/06/04 03:52:55;;;;;;;8.70;3.03;;;;;;;;;;5114987;28;20020;-76
2022/06/04 03:55:21;;;;;;;6.20;2.67;;;;;;;;;;5114706;28;20028;-76
2022/06/04 03:57:48;;;;;;;9.43;2.90;;;;;;;;;;5114745;28;20023;-76
2022/06/04 04:00:17;;;;;;;8.65;2.80;;;;;;;;;;5114775;28;20156;-76
2022/06/04 04:02:44;;;;;;;6.63;2.70;;;;;;;;;;5114708;28;20020;-76
2022/06/04 04:05:11;;;;;;;15.52;3.30;;;;;;;;;;5106196;28;20030;-76
2022/06/04 04:07:38;;;;;;;4.18;2.75;;;;;;;;;;5094327;28;20031;-76
2022/06/04 04:10:05;;;;;;;8.05;3.00;;;;;;;;;;5094028;28;20028;-76
2022/06/04 04:12:31;;;;;;;5.72;3.00;;;;;;;;;;5093729;28;20024;-76
2022/06/04 04:14:57;;;;;;;6.93;3.08;;;;;;;;;;5093960;28;20150;-76
2022/06/04 04:17:23;;;;;;;6.35;3.05;;;;;;;;;;5093890;28;20090;-76
2022/06/04 04:19:50;;;;;;;6.32;2.90;;;;;;;;;;5094000;28;20064;-76
2022/06/04 04:22:16;;;;;;;6.65;3.08;;;;;;;;;;5093936;28;20023;-76
2022/06/04 04:24:42;;;;;;;8.10;3.22;;;;;;;;;;5093970;28;20024;-76
2022/06/04 04:27:09;;;;;;;9.10;3.13;;;;;;;;;;5093766;28;20127;-76
2022/06/04 04:29:35;;;;;;;8.10;3.25;;;;;;;;;;5104835;28;20020;-76
2022/06/04 04:32:01;;;;;;;7.03;3.03;;;;;;;;;;5113892;28;20015;-76
2022/06/04 04:34:27;;;;;;;10.82;3.63;;;;;;;;;;5113872;28;20480;-77
2022/06/04 04:36:53;;;;;;;5.45;3.10;;;;;;;;;;5114196;28;20027;-77
2022/06/04 04:39:19;;;;;;;8.68;3.53;;;;;;;;;;5113779;28;20040;-76
2022/06/04 04:41:45;;;;;;;9.48;3.08;;;;;;;;;;5113963;28;20058;-76
2022/06/04 04:44:11;;;;;;;11.52;3.72;;;;;;;;;;5113902;28;20070;-77
2022/06/04 04:46:37;;;;;;;9.60;3.67;;;;;;;;;;5113512;28;20031;-77
2022/06/04 04:49:03;;;;;;;9.98;3.35;;;;;;;;;;5114128;28;20027;-76
2022/06/04 04:51:30;;;;;;;10.95;3.85;;;;;;;;;;5114234;28;20104;-76
2022/06/04 04:53:56;;;;;;;9.02;3.88;;;;;;;;;;5114317;28;20463;-76
2022/06/04 04:56:23;;;;;;;9.88;3.50;;;;;;;;;;5113902;28;20051;-76
2022/06/04 04:58:50;;;;;;;8.65;3.67;;;;;;;;;;5114217;28;20345;-76
2022/06/04 05:01:16;;;;;;;11.15;3.60;;;;;;;;;;5113932;28;20011;-76
2022/06/04 05:03:44;;;;;;;10.45;3.75;;;;;;;;;;5113514;28;20346;-76
2022/06/04 05:06:11;;;;;;;8.48;4.20;;;;;;;;;;5113339;28;20024;-76
2022/06/04 05:08:37;;;;;;;9.88;3.83;;;;;;;;;;5113398;28;20023;-76
2022/06/04 05:11:14;;;;;;;8.13;3.83;;;;;;;;;;5113220;28;20718;-76
2022/06/04 05:13:40;;;;;;;9.55;3.85;;;;;;;;;;5113218;28;20481;-76
2022/06/04 05:16:06;;;;;;;7.57;3.42;;;;;;;;;;5113158;28;20034;-76
2022/06/04 05:18:32;;;;;;;7.35;4.00;;;;;;;;;;5113046;28;20046;-77
2022/06/04 05:21:11;;;;;;;14.77;3.75;;;;;;;;;;5113152;28;20024;-77
2022/06/04 05:23:37;;;;;;;8.98;3.95;;;;;;;;;;5112243;28;20481;-77
2022/06/04 05:26:03;;;;;;;8.77;3.97;;;;;;;;;;5112852;28;20034;-76
2022/06/04 05:28:29;;;;;;;11.82;4.00;;;;;;;;;;5112240;28;20059;-77
2022/06/04 05:30:55;;;;;;;7.05;3.67;;;;;;;;;;5109568;28;20030;-77
2022/06/04 05:33:22;;;;;;;6.82;3.75;;;;;;;;;;5112678;28;20510;-77
2022/06/04 05:35:48;;;;;;;11.02;3.70;;;;;;;;;;5112444;28;20107;-76
2022/06/04 05:38:14;;;;;;;10.65;4.25;;;;;;;;;;5112097;28;20051;-76
2022/06/04 05:40:40;;;;;;;8.38;3.90;;;;;;;;;;5112403;28;20080;-76
2022/06/04 05:43:06;;;;;;;10.02;3.40;;;;;;;;;;5112320;28;20019;-76
2022/06/04 05:45:32;;;;;;;6.28;3.55;;;;;;;;;;5103537;28;20411;-76
2022/06/04 05:47:58;;;;;;;9.02;3.55;;;;;;;;;;5101811;28;20445;-77
2022/06/04 05:50:24;;;;;;;7.68;3.60;;;;;;;;;;5102728;28;20090;-76
2022/06/04 05:52:50;;;;;;;7.18;3.42;;;;;;;;;;5112091;28;20065;-75
2022/06/04 05:55:16;;;;;;;9.27;3.97;;;;;;;;;;5111756;28;20015;-77
2022/06/04 05:57:43;;;;;;;7.75;3.78;;;;;;;;;;5111979;28;20018;-77
2022/06/04 06:00:10;;;;;;;11.68;4.18;;;;;;;;;;5111847;28;20099;-76
2022/06/04 06:02:36;;;;;;;8.00;3.25;;;;;;;;;;5112009;28;20031;-76
2022/06/04 06:05:03;;;;;;;7.00;3.58;;;;;;;;;;5109739;28;20038;-77
2022/06/04 06:07:29;;;;;;;10.15;3.85;;;;;;;;;;5112067;28;20019;-76
2022/06/04 06:09:55;;;;;;;10.80;4.00;;;;;;;;;;5111660;28;20027;-77
2022/06/04 06:12:21;;;;;;;9.75;3.33;;;;;;;;;;5112006;28;20458;-76
2022/06/04 06:14:47;;;;;;;8.45;4.72;;;;;;;;;;5111629;28;20020;-77
2022/06/04 06:17:13;;;;;;;15.65;4.40;;;;;;;;;;5111633;28;20381;-77
2022/06/04 06:19:39;;;;;;;10.35;3.80;;;;;;;;;;5111699;28;20523;-76
2022/06/04 06:22:05;;;;;;;14.95;3.92;;;;;;;;;;5111688;28;20027;-76
2022/06/04 06:24:31;;;;;;;8.02;3.58;;;;;;;;;;5111615;28;20084;-77
2022/06/04 06:26:58;;;;;;;7.03;3.30;;;;;;;;;;5111637;28;20076;-76
2022/06/04 06:29:26;;;;;;;8.63;3.60;;;;;;;;;;5111472;28;20023;-76
2022/06/04 06:31:52;;;;;;;14.50;4.18;;;;;;;;;;5108568;28;20049;-76
2022/06/04 06:34:19;;;;;;;7.07;3.47;;;;;;;;;;5111343;28;20095;-76
2022/06/04 06:36:46;;;;;;;14.63;3.92;;;;;;;;;;5111455;28;20028;-76
2022/06/04 06:39:12;;;;;;;7.30;3.60;;;;;;;;;;5111128;28;20051;-76
2022/06/04 06:41:38;;;;;;;10.15;3.67;;;;;;;;;;5111312;28;20020;-76
2022/06/04 06:44:04;;;;;;;9.63;3.00;;;;;;;;;;5111480;28;20456;-76
2022/06/04 06:46:44;;;;;;;11.85;2.78;;;;;;;;;;5111237;28;20092;-76
2022/06/04 06:49:19;;;;;;;10.18;3.47;;;;;;;;;;5111241;28;20035;-76
2022/06/04 06:51:54;;;;;;;6.47;2.90;;;;;;;;;;5111410;28;20051;-76
2022/06/04 06:54:21;;;;;;;7.50;3.28;;;;;;;;;;5107158;28;20020;-76
2022/06/04 06:56:47;;;;;;;9.40;3.47;;;;;;;;;;5111266;28;20016;-76
2022/06/04 06:59:14;;;;;;;7.82;3.65;;;;;;;;;;5111002;28;20023;-76
2022/06/04 07:01:42;;;;;;;8.00;2.63;;;;;;;;;;5111180;28;20026;-76
2022/06/04 07:04:09;;;;;;;9.05;3.45;;;;;;;;;;5111076;28;20012;-76
2022/06/04 07:06:36;;;;;;;5.05;3.05;;;;;;;;;;5104172;28;20026;-76
2022/06/04 07:09:04;;;;;;;7.43;3.13;;;;;;;;;;5101463;28;20440;-77
2022/06/04 07:11:31;;;;;;;6.88;3.20;;;;;;;;;;5102550;28;20078;-76
2022/06/04 07:13:57;;;;;;;8.43;3.00;;;;;;;;;;5101123;28;20462;-77
2022/06/04 07:16:23;;;;;;;5.68;2.90;;;;;;;;;;5100209;28;20036;-76
2022/06/04 07:18:49;;;;;;;8.40;2.85;;;;;;;;;;5101926;28;20020;-76
2022/06/04 07:21:15;;;;;;;5.03;3.08;;;;;;;;;;5101863;28;20028;-76
2022/06/04 07:23:42;;;;;;;10.38;2.95;;;;;;;;;;5102556;28;20028;-76
2022/06/04 07:26:08;;;;;;;8.65;2.78;;;;;;;;;;5101861;28;20012;-77
2022/06/04 07:28:37;;;;;;;9.40;2.88;;;;;;;;;;5101606;28;20027;-76
2022/06/04 07:31:04;;;;;;;5.72;2.30;;;;;;;;;;5103210;28;20039;-76
2022/06/04 07:33:30;;;;;;;4.90;3.10;;;;;;;;;;5096156;28;20028;-76
2022/06/04 07:35:56;;;;;;;10.43;3.08;;;;;;;;;;5100944;28;20016;-76
2022/06/04 07:38:22;;;;;;;7.93;2.90;;;;;;;;;;5104484;28;20098;-77
2022/06/04 07:40:48;;;;;;;6.32;2.83;;;;;;;;;;5110262;28;20369;-77
2022/06/04 07:43:14;;;;;;;7.15;2.63;;;;;;;;;;5110875;28;20011;-77
2022/06/04 07:45:40;;;;;;;5.80;2.63;;;;;;;;;;5090026;28;20031;-77
2022/06/04 07:48:07;;;;;;;5.35;2.88;;;;;;;;;;5114336;28;20011;-77
2022/06/04 07:50:34;;;;;;;9.35;2.88;;;;;;;;;;5114152;28;20058;-77
2022/06/04 07:53:01;;;;;;;5.18;2.58;;;;;;;;;;5112247;28;20503;-77
2022/06/04 07:55:27;;;;;;;5.53;2.60;;;;;;;;;;5114366;28;20362;-77
2022/06/04 07:57:54;;;;;;;9.18;2.67;;;;;;;;;;5114150;28;20032;-77
2022/06/04 08:00:22;;;;;;;4.85;2.55;;;;;;;;;;5111542;28;20024;-77
2022/06/04 08:02:48;;;;;;;5.40;2.20;;;;;;;;;;5113972;28;20016;-77
2022/06/04 08:05:15;;;;;;;8.63;2.97;;;;;;;;;;5113491;28;20023;-78
2022/06/04 08:07:41;;;;;;;7.10;2.72;;;;;;;;;;5114124;28;20473;-77
2022/06/04 08:10:08;;;;;;;8.68;2.85;;;;;;;;;;5114054;28;20066;-77
2022/06/04 08:12:35;;;;;;;5.35;3.00;;;;;;;;;;5113877;28;20035;-77
2022/06/04 08:15:02;;;;;;;7.50;2.85;;;;;;;;;;5111121;28;20035;-78
2022/06/04 08:17:30;;;;;;;5.82;2.60;;;;;;;;;;5113591;28;20118;-77
2022/06/04 08:19:56;;;;;;;5.90;2.70;;;;;;;;;;5113338;28;20537;-77
2022/06/04 08:22:22;;;;;;;8.30;3.00;;;;;;;;;;5113614;28;20020;-77
2022/06/04 08:24:49;;;;;;;8.75;2.97;;;;;;;;;;5113482;28;20016;-78
2022/06/04 08:27:15;;;;;;;8.25;2.65;;;;;;;;;;5113317;28;20030;-77
2022/06/04 08:29:44;;;;;;;6.63;2.20;;;;;;;;;;5113394;28;20019;-76
2022/06/04 08:32:10;;;;;;;4.93;2.60;;;;;;;;;;5094858;28;20483;-78
2022/06/04 08:34:36;;;;;;;6.43;2.55;;;;;;;;;;5113571;28;20031;-79
2022/06/04 08:37:02;;;;;;;7.82;2.38;;;;;;;;;;5113872;28;20023;-77
2022/06/04 08:39:29;;;;;;;8.05;2.90;;;;;;;;;;5113786;28;20512;-80
2022/06/04 08:41:55;;;;;;;6.03;2.70;;;;;;;;;;5113720;28;20794;-78
2022/06/04 08:44:23;;;;;;;10.52;2.92;;;;;;;;;;5113773;28;20036;-77
2022/06/04 08:47:00;;;;;;;5.10;2.40;;;;;;;;;;5113946;28;20381;-77
2022/06/04 08:49:32;;;;;;;6.40;2.40;;;;;;;;;;5113840;28;20193;-77
2022/06/04 08:52:00;;;;;;;9.80;2.35;;;;;;;;;;5113802;28;20034;-78
2022/06/04 09:00:09;;;;;;;6.18;2.78;;;;;;;;;;5113462;28;20725;-78
2022/06/04 09:02:39;;;;;;;8.50;3.40;;;;;;;;;;5113369;28;20126;-78
2022/06/04 09:05:14;;;;;;;5.45;2.80;;;;;;;;;;5094259;28;20024;-78
2022/06/04 09:07:50;;;;;;;6.90;3.10;;;;;;;;;;5111491;28;20028;-79
2022/06/04 09:10:22;;;;;;;6.25;3.08;;;;;;;;;;5113449;28;20030;-79
2022/06/04 09:12:48;;;;;;;;;;;;;;;;;;5093852;28;20020;-78
2022/06/04 09:15:14;;;;;;;7.35;2.95;;;;;;;;;;5093231;28;19904;-78
2022/06/04 09:17:40;;;;;;;7.20;2.72;;;;;;;;;;5093052;28;20028;-78
2022/06/04 09:20:19;;;;;;;7.63;3.17;;;;;;;;;;5093258;28;20496;-78
2022/06/04 09:22:47;;;;;;;5.15;2.47;;;;;;;;;;5093170;28;20078;-78
2022/06/04 09:25:17;;;;;;;12.13;3.10;;;;;;;;;;5092893;28;20046;-79
2022/06/04 09:27:50;;;;;;;7.40;4.70;;;;;;;;;;5092823;28;20034;-78
2022/06/04 09:30:20;;;;;;;6.45;3.20;;;;;;;;;;5096771;28;20094;-77
2022/06/04 09:32:55;;;;;;;4.32;2.40;;;;;;;;;;5112830;28;20027;-78
2022/06/04 09:35:26;;;;;;;6.05;2.65;;;;;;;;;;5112966;28;20442;-79
2022/06/04 09:37:52;;;;;;;11.63;4.15;;;;;;;;;;5111722;28;20043;-77
2022/06/04 09:40:30;;;;;;;6.80;2.70;;;;;;;;;;5095383;28;20024;-78
2022/06/04 09:43:12;;;;;;;9.13;2.67;;;;;;;;;;5098873;28;20131;-78
2022/06/04 09:45:38;;;;;;;;;;;;;;;;;;5093840;28;20047;-76
2022/06/04 09:48:12;;;;;;;5.60;2.95;;;;;;;;;;5092885;28;20004;-77
2022/06/04 09:50:39;;;;;;;4.95;2.53;;;;;;;;;;5093682;28;20571;-80
2022/06/04 09:53:25;;;;;;;7.03;2.47;;;;;;;;;;5093484;28;20028;-80
2022/06/04 09:55:59;;;;;;;3.70;2.15;;;;;;;;;;5093115;28;20027;-80
2022/06/04 09:58:29;;;;;;;5.85;2.65;;;;;;;;;;5092536;28;20069;-79
2022/06/04 10:00:58;;;;;;;5.03;2.50;;;;;;;;;;5092177;28;20024;-80
2022/06/04 10:03:24;;;;;;;4.43;2.70;;;;;;;;;;5092292;28;20119;-78
2022/06/04 10:05:51;;;;;;;5.70;2.80;;;;;;;;;;5092006;28;20021;-78
2022/06/04 10:08:25;;;;;;;10.80;2.80;;;;;;;;;;5091872;28;20016;-78
2022/06/04 10:10:57;;;;;;;7.70;3.15;;;;;;;;;;5092682;28;20021;-78
2022/06/04 10:16:19;;;;;;;13.73;3.80;;;;;;;;;;5112393;28;20009;-78
2022/06/04 10:18:55;;;;;;;7.22;2.75;;;;;;;;;;5112106;28;20031;-76
2022/06/04 10:21:26;;;;;;;4.57;2.25;;;;;;;;;;5112351;28;20047;-77
2022/06/04 10:23:54;;;;;;;4.35;2.35;;;;;;;;;;5112215;28;20020;-78
2022/06/04 10:26:26;;;;;;;6.88;2.70;;;;;;;;;;5111759;28;20095;-78
2022/06/04 10:29:16;;;;;;;7.70;3.10;;;;;;;;;;5111974;28;20413;-79
2022/06/04 10:31:50;;;;;;;5.97;2.50;;;;;;;;;;5098004;28;20031;-79
2022/06/04 10:34:18;;;;;;;9.82;3.45;;;;;;;;;;5112257;28;20023;-78
2022/06/04 10:37:00;;;;;;;3.85;2.22;;;;;;;;;;5100340;28;20043;-80
2022/06/04 10:39:33;;;;;;;3.67;2.58;;;;;;;;;;5108459;28;20048;-80
2022/06/04 10:42:17;;;;;;;8.23;2.38;;;;;;;;;;5093409;28;20028;-78
2022/06/04 10:45:02;;;;;;;7.15;2.53;;;;;;;;;;5111078;28;20036;-78
2022/06/04 10:47:39;;;;;;;6.57;2.78;;;;;;;;;;5111532;28;20401;-79
2022/06/04 10:50:28;;;;;;;5.93;2.47;;;;;;;;;;5111399;28;20016;-76
2022/06/04 10:53:07;;;;;;;4.18;2.58;;;;;;;;;;5109814;28;20024;-76
2022/06/04 10:55:46;;;;;;;7.45;2.83;;;;;;;;;;5109339;28;20035;-74
2022/06/04 10:58:23;;;;;;;4.93;2.50;;;;;;;;;;5109420;28;20058;-75
2022/06/04 11:00:53;;;;;;;6.65;2.95;;;;;;;;;;5108976;28;20016;-76
2022/06/04 11:03:35;;;;;;;8.55;2.70;;;;;;;;;;5110102;28;20607;-76
2022/06/04 11:06:05;;;;;;;4.07;2.13;;;;;;;;;;5109255;28;20034;-76
2022/06/04 11:08:35;;;;;;;6.88;2.60;;;;;;;;;;5111406;28;20028;-76
2022/06/04 11:11:04;;;;;;;5.45;2.70;;;;;;;;;;5111532;28;20019;-76
2022/06/04 11:13:49;;;;;;;8.95;2.97;;;;;;;;;;5108965;28;20028;-76
2022/06/04 11:16:24;;;;;;;7.95;2.92;;;;;;;;;;5109916;28;20343;-77
2022/06/04 11:19:08;;;;;;;5.15;2.80;;;;;;;;;;5109328;28;20028;-78
2022/06/04 11:21:41;;;;;;;5.25;2.78;;;;;;;;;;5113619;28;20453;-78
2022/06/04 11:24:15;;;;;;;3.63;2.80;;;;;;;;;;5116039;28;20023;-78
2022/06/04 11:26:43;;;;;;;8.77;3.58;;;;;;;;;;5115976;28;20015;-78
2022/06/04 11:29:14;;;;;;;5.97;2.58;;;;;;;;;;5115836;28;20113;-78
2022/06/04 11:31:40;;;;;;;4.95;2.47;;;;;;;;;;5099685;28;20323;-78
2022/06/04 11:34:06;;;;;;;5.10;2.72;;;;;;;;;;5095349;28;20020;-78
2022/06/04 11:36:38;;;;;;;4.93;2.70;;;;;;;;;;5095294;28;20093;-78
2022/06/04 11:39:04;;;;;;;11.95;2.83;;;;;;;;;;5076427;28;20340;-77
2022/06/04 11:41:46;;;;;;;7.78;3.70;;;;;;;;;;5095140;28;20043;-78
2022/06/04 11:44:15;;;;;;;4.55;2.88;;;;;;;;;;5076847;28;20327;-78
2022/06/04 11:46:54;;;;;;;3.63;2.63;;;;;;;;;;5095402;28;20492;-78
2022/06/04 11:49:31;;;;;;;13.23;3.08;;;;;;;;;;5095186;28;20095;-78
2022/06/04 11:52:06;;;;;;;5.10;3.30;;;;;;;;;;5095103;28;20035;-78
2022/06/04 11:54:44;;;;;;;8.77;3.75;;;;;;;;;;5095103;28;20028;-77
2022/06/04 11:57:26;;;;;;;5.22;3.08;;;;;;;;;;5074802;28;20041;-77
2022/06/04 11:59:52;;;;;;;13.67;3.20;;;;;;;;;;5085304;28;20116;-75
2022/06/04 12:02:18;;;;;;;57.63;8.48;;;;;;;;;;5094789;28;20251;-78
2022/06/04 12:04:51;;;;;;;72.00;8.90;;;;;;;;;;5094771;28;20024;-78
2022/06/04 12:07:20;;;;;;;22.35;4.07;;;;;;;;;;5094733;28;20036;-78
2022/06/04 12:10:00;;;;;;;9.63;3.55;;;;;;;;;;5094438;28;20134;-78
2022/06/04 12:12:32;;;;;;;5.97;3.10;;;;;;;;;;5094467;28;20027;-78
2022/06/04 12:15:25;;;;;;;10.80;2.70;;;;;;;;;;5093956;28;20127;-78
2022/06/04 12:17:55;;;;;;;8.95;3.50;;;;;;;;;;5094178;28;20342;-78
2022/06/04 12:26:33;;;;;;;6.03;3.00;;;;;;;;;;5094506;28;20433;-76
2022/06/04 12:29:00;;;;;;;5.88;2.65;;;;;;;;;;5081760;28;20031;-78
2022/06/04 12:31:34;;;;;;;7.50;2.70;;;;;;;;;;5093989;28;20032;-79
2022/06/04 12:34:01;;;;;;;8.50;2.90;;;;;;;;;;5094063;28;20107;-79
2022/06/04 12:36:29;;;;;;;7.40;3.30;;;;;;;;;;5094550;28;20094;-78
2022/06/04 12:39:00;;;;;;;4.63;2.90;;;;;;;;;;5104778;28;20051;-78
2022/06/04 12:41:37;;;;;;;4.97;2.78;;;;;;;;;;5112561;28;20043;-78
2022/06/04 12:44:04;;;;;;;9.27;2.50;;;;;;;;;;5114604;28;20019;-77
2022/06/04 12:46:33;;;;;;;12.88;2.60;;;;;;;;;;5114286;28;20015;-78
2022/06/04 12:49:02;;;;;;;10.13;2.85;;;;;;;;;;5114350;28;20478;-78
2022/06/04 12:51:47;;;;;;;6.03;2.75;;;;;;;;;;5114378;28;20466;-79
2022/06/04 12:54:27;;;;;;;7.13;3.08;;;;;;;;;;5114071;28;20400;-78
2022/06/04 12:56:55;;;;;;;4.40;2.83;;;;;;;;;;5095677;28;20035;-78
2022/06/04 12:59:37;;;;;;;6.65;2.97;;;;;;;;;;5114449;28;20110;-78
2022/06/04 13:02:24;;;;;;;8.13;2.90;;;;;;;;;;5114362;28;20051;-78
2022/06/04 13:04:50;;;;;;;7.43;2.85;;;;;;;;;;5097199;28;20427;-78
2022/06/04 13:07:16;;;;;;;8.07;3.10;;;;;;;;;;5114662;28;20503;-78
2022/06/04 13:09:55;;;;;;;6.72;2.97;;;;;;;;;;5114611;28;20031;-77
2022/06/04 13:12:21;;;;;;;6.20;2.88;;;;;;;;;;5114011;28;20032;-78
2022/06/04 13:14:49;;;;;;;6.13;2.92;;;;;;;;;;5113315;28;20227;-78
2022/06/04 13:17:18;;;;;;;5.78;2.55;;;;;;;;;;5112685;28;20019;-78
2022/06/04 13:20:01;;;;;;;7.00;2.97;;;;;;;;;;5112963;28;20031;-78
2022/06/04 13:22:33;;;;;;;6.85;2.45;;;;;;;;;;5111857;28;20499;-78
2022/06/04 13:24:59;;;;;;;;;;;;;;;;;;5112009;28;20094;-78
2022/06/04 13:27:47;;;;;;;6.15;3.03;;;;;;;;;;5113447;28;20400;-78
2022/06/04 13:30:23;;;;;;;4.95;2.45;;;;;;;;;;5113550;28;20373;-78
2022/06/04 13:32:49;;;;;;;11.82;2.60;;;;;;;;;;5113301;28;20034;-78
2022/06/04 13:35:19;;;;;;;7.32;2.78;;;;;;;;;;5113442;28;20031;-77
2022/06/04 13:37:46;;;;;;;6.38;2.78;;;;;;;;;;5113094;28;20040;-77
2022/06/04 13:40:38;;;;;;;6.57;2.60;;;;;;;;;;5094555;28;20751;-77
2022/06/04 13:43:06;;;;;;;14.88;4.57;;;;;;;;;;5111208;28;20059;-77
2022/06/04 13:45:36;;;;;;;5.47;2.85;;;;;;;;;;5109944;28;20073;-77
2022/06/04 13:48:18;;;;;;;7.50;3.13;;;;;;;;;;5112731;28;20022;-77
2022/06/04 13:50:51;;;;;;;8.30;3.10;;;;;;;;;;5112780;28;20043;-78
2022/06/04 13:53:19;;;;;;;6.70;2.75;;;;;;;;;;5113563;28;20479;-78
2022/06/04 13:56:18;;;;;;;8.95;2.85;;;;;;;;;;5112735;28;20051;-78
2022/06/04 13:58:45;;;;;;;5.43;2.78;;;;;;;;;;5028878;28;20499;-78
2022/06/04 14:01:13;;;;;;;7.75;3.13;;;;;;;;;;5029588;28;20041;-77
2022/06/04 14:03:40;;;;;;;6.63;2.30;;;;;;;;;;5030215;28;20025;-78
2022/06/04 14:06:07;;;;;;;7.13;3.10;;;;;;;;;;5030315;28;20040;-77
2022/06/04 14:08:50;;;;;;;10.35;2.78;;;;;;;;;;5030064;28;20037;-77
2022/06/04 14:11:22;;;;;;;6.47;3.20;;;;;;;;;;5030010;28;20033;-78
2022/06/04 14:13:48;;;;;;;4.63;2.92;;;;;;;;;;5025377;28;20060;-78
2022/06/04 14:16:25;;;;;;;12.80;2.75;;;;;;;;;;5028878;28;20488;-78
2022/06/04 14:18:54;;;;;;;7.32;3.25;;;;;;;;;;5028789;28;20112;-78
2022/06/04 14:21:44;;;;;;;4.50;2.90;;;;;;;;;;5029225;28;20045;-77
2022/06/04 14:24:10;;;;;;;3.20;2.63;;;;;;;;;;5028525;28;20353;-78
2022/06/04 14:26:41;;;;;;;4.20;2.55;;;;;;;;;;5027783;28;20023;-78
2022/06/04 14:29:23;;;;;;;6.55;2.72;;;;;;;;;;5028597;28;20033;-78
2022/06/04 14:32:06;;;;;;;5.85;2.83;;;;;;;;;;5026651;28;20447;-78
2022/06/04 14:34:42;;;;;;;3.88;2.85;;;;;;;;;;5075940;28;20050;-78
2022/06/04 14:37:08;;;;;;;4.30;2.60;;;;;;;;;;5109387;28;20472;-78
2022/06/04 14:39:36;;;;;;;6.00;2.60;;;;;;;;;;5111896;28;20521;-78
2022/06/04 14:42:24;;;;;;;4.22;2.58;;;;;;;;;;5111916;28;20027;-78
2022/06/04 14:45:18;;;;;;;3.50;2.35;;;;;;;;;;5007431;28;20040;-77
2022/06/04 14:48:03;;;;;;;3.58;2.45;;;;;;;;;;5009013;28;20125;-79
2022/06/04 14:50:36;;;;;;;5.53;2.75;;;;;;;;;;5003810;28;20026;-76
2022/06/04 14:53:03;;;;;;;8.88;2.40;;;;;;;;;;5029037;28;20666;-76
2022/06/04 14:55:35;;;;;;;4.85;2.67;;;;;;;;;;5030852;28;20752;-76
2022/06/04 14:58:01;;;;;;;6.65;2.55;;;;;;;;;;5033004;28;20037;-76
2022/06/04 15:00:27;;;;;;;4.25;2.47;;;;;;;;;;5030277;28;20112;-76
2022/06/04 15:03:12;;;;;;;5.65;2.50;;;;;;;;;;5032861;28;20120;-76
2022/06/04 15:06:01;;;;;;;7.60;2.50;;;;;;;;;;5032629;28;20021;-76
2022/06/04 15:08:33;;;;;;;4.35;2.10;;;;;;;;;;5024011;28;20113;-76
2022/06/04 15:11:17;;;;;;;6.95;2.67;;;;;;;;;;5032694;28;20115;-76
2022/06/04 15:13:43;;;;;;;5.95;2.15;;;;;;;;;;5032528;28;20044;-76
2022/06/04 15:16:09;;;;;;;6.50;2.33;;;;;;;;;;5007814;28;20029;-76
2022/06/04 15:18:54;;;;;;;6.07;2.40;;;;;;;;;;5032475;28;20470;-76
2022/06/04 15:21:40;;;;;;;10.02;2.10;;;;;;;;;;5050995;28;20020;-76